createdAt,value
2022-08-20T00:02:10.948Z,14.77
2022-08-20T00:04:39.611Z,14.63
2022-08-20T00:07:09.026Z,14.40
2022-08-20T00:09:37.098Z,15.55
2022-08-20T00:12:06.148Z,14.48
2022-08-20T00:14:34.834Z,13.13
2022-08-20T00:17:03.245Z,15.68
2022-08-20T00:19:31.637Z,15.57
2022-08-20T00:21:59.553Z,15.80
2022-08-20T00:24:28.832Z,15.77
2022-08-20T00:26:56.762Z,17.67
2022-08-20T00:29:24.792Z,18.55
2022-08-20T00:31:52.744Z,16.73
2022-08-20T00:34:20.902Z,15.30
2022-08-20T00:36:48.824Z,16.10
2022-08-20T00:39:16.807Z,14.48
2022-08-20T00:41:46.032Z,15.43
2022-08-20T00:44:18.534Z,16.60
2022-08-20T00:46:47.453Z,19.87
2022-08-20T00:49:18.454Z,15.75
2022-08-20T00:51:49.978Z,16.40
2022-08-20T00:54:24.906Z,16.30
2022-08-20T00:56:59.523Z,17.92
2022-08-20T00:59:30.674Z,17.50
2022-08-20T01:01:59.414Z,17.25
2022-08-20T01:04:29.860Z,17.92
2022-08-20T01:06:58.418Z,19.15
2022-08-20T01:09:49.735Z,17.33
2022-08-20T01:12:18.010Z,21.35
2022-08-20T01:14:47.479Z,17.95
2022-08-20T01:17:19.732Z,19.80
2022-08-20T01:19:53.439Z,20.38
2022-08-20T01:22:46.371Z,21.90
2022-08-20T01:25:20.777Z,22.77
2022-08-20T01:27:55.389Z,21.20
2022-08-20T01:30:28.417Z,23.08
2022-08-20T01:32:56.865Z,21.53
2022-08-20T01:35:26.716Z,21.40
2022-08-20T01:37:54.829Z,22.80
2022-08-20T01:40:35.635Z,21.88
2022-08-20T01:43:06.406Z,25.38
2022-08-20T01:45:36.402Z,22.88
2022-08-20T01:48:06.045Z,22.30
2022-08-20T01:50:36.254Z,24.67
2022-08-20T01:53:13.669Z,22.92
2022-08-20T01:55:42.111Z,22.25
2022-08-20T01:58:11.803Z,21.90
2022-08-20T02:00:39.966Z,25.65
2022-08-20T02:03:08.542Z,24.48
2022-08-20T02:05:36.769Z,26.23
2022-08-20T02:08:06.076Z,26.25
2022-08-20T02:10:34.209Z,26.75
2022-08-20T02:13:02.801Z,25.90
2022-08-20T02:15:37.082Z,26.00
2022-08-20T02:18:10.758Z,27.33
2022-08-20T02:20:40.030Z,28.63
2022-08-20T02:23:09.377Z,26.23
2022-08-20T02:25:40.315Z,29.08
2022-08-20T02:28:11.944Z,29.67
2022-08-20T02:30:46.353Z,28.77
2022-08-20T02:33:17.157Z,31.90
2022-08-20T02:35:47.949Z,28.85
2022-08-20T02:38:16.768Z,29.13
2022-08-20T02:40:46.068Z,34.72
2022-08-20T02:43:14.487Z,28.92
2022-08-20T02:45:44.655Z,32.13
2022-08-20T02:48:21.211Z,33.17
2022-08-20T02:50:51.708Z,31.73
2022-08-20T02:53:19.798Z,33.05
2022-08-20T02:55:48.069Z,31.77
2022-08-20T02:58:16.308Z,31.60
2022-08-20T03:00:45.875Z,30.35
2022-08-20T03:03:15.695Z,30.40
2022-08-20T03:05:45.462Z,28.17
2022-08-20T03:08:15.288Z,31.10
2022-08-20T03:10:45.129Z,29.45
2022-08-20T03:13:14.920Z,30.77
2022-08-20T03:15:46.699Z,36.55
2022-08-20T03:18:15.047Z,30.30
2022-08-20T03:20:43.489Z,31.05
2022-08-20T03:23:14.273Z,28.77
2022-08-20T03:25:42.464Z,32.88
2022-08-20T03:28:11.091Z,29.85
2022-08-20T03:30:39.707Z,31.20
2022-08-20T03:33:09.236Z,28.95
2022-08-20T03:35:38.517Z,30.05
2022-08-20T03:38:08.600Z,28.85
2022-08-20T03:40:37.326Z,30.33
2022-08-20T03:43:06.011Z,32.65
2022-08-20T03:45:34.126Z,31.33
2022-08-20T03:48:02.574Z,34.20
2022-08-20T03:50:33.062Z,34.58
2022-08-20T03:53:01.546Z,32.25
2022-08-20T03:55:31.396Z,37.38
2022-08-20T03:58:02.969Z,36.35
2022-08-20T04:00:35.141Z,33.30
2022-08-20T04:03:03.402Z,33.45
2022-08-20T04:05:34.315Z,35.00
2022-08-20T04:08:03.720Z,33.00
2022-08-20T04:10:31.967Z,30.90
2022-08-20T04:12:59.907Z,31.65
2022-08-20T04:15:29.732Z,30.77
2022-08-20T04:17:59.761Z,30.77
2022-08-20T04:20:28.214Z,28.50
2022-08-20T04:22:59.421Z,32.45
2022-08-20T04:25:28.487Z,29.75
2022-08-20T04:27:58.528Z,29.42
2022-08-20T04:30:27.223Z,32.90
2022-08-20T04:32:56.079Z,30.17
2022-08-20T04:35:25.358Z,29.85
2022-08-20T04:38:02.285Z,28.90
2022-08-20T04:40:48.121Z,31.30
2022-08-20T04:43:16.606Z,34.72
2022-08-20T04:45:45.265Z,29.48
2022-08-20T04:48:15.320Z,36.00
2022-08-20T04:50:46.902Z,29.05
2022-08-20T04:53:22.736Z,30.73
2022-08-20T04:55:55.053Z,31.15
2022-08-20T04:58:27.376Z,29.10
2022-08-20T05:00:56.910Z,29.00
2022-08-20T05:03:30.024Z,29.48
2022-08-20T05:05:58.576Z,30.73
2022-08-20T05:08:28.056Z,30.58
2022-08-20T05:11:06.724Z,30.40
2022-08-20T05:13:45.733Z,29.58
2022-08-20T05:16:14.198Z,29.00
2022-08-20T05:18:44.731Z,29.20
2022-08-20T05:21:20.653Z,30.45
2022-08-20T05:23:50.137Z,28.45
2022-08-20T05:26:20.155Z,28.27
2022-08-20T05:28:57.561Z,28.52
2022-08-20T05:31:31.863Z,28.75
2022-08-20T05:34:01.667Z,25.90
2022-08-20T05:36:29.887Z,28.73
2022-08-20T05:38:59.220Z,24.83
2022-08-20T05:41:30.169Z,26.13
2022-08-20T05:44:01.133Z,30.65
2022-08-20T05:46:29.505Z,25.60
2022-08-20T05:48:59.443Z,27.63
2022-08-20T05:51:27.697Z,29.60
2022-08-20T05:53:57.395Z,26.63
2022-08-20T05:56:30.248Z,28.58
2022-08-20T05:58:59.397Z,26.75
2022-08-20T06:01:27.395Z,25.13
2022-08-20T06:04:12.961Z,26.00
2022-08-20T06:06:46.029Z,24.33
2022-08-20T06:09:16.115Z,24.33
2022-08-20T06:11:45.309Z,25.58
2022-08-20T06:14:13.289Z,27.42
2022-08-20T06:16:57.098Z,23.85
2022-08-20T06:19:26.362Z,24.10
2022-08-20T06:21:54.666Z,21.50
2022-08-20T06:24:22.688Z,19.52
2022-08-20T06:26:57.885Z,21.10
2022-08-20T06:29:26.062Z,21.92
2022-08-20T06:31:54.168Z,18.77
2022-08-20T06:34:22.072Z,22.92
2022-08-20T06:36:49.981Z,19.70
2022-08-20T06:39:17.945Z,21.23
2022-08-20T06:41:45.877Z,25.63
2022-08-20T06:44:15.288Z,22.67
2022-08-20T06:46:43.337Z,19.58
2022-08-20T06:49:11.400Z,20.92
2022-08-20T06:51:40.089Z,19.75
2022-08-20T06:54:09.647Z,18.70
2022-08-20T06:56:37.682Z,19.77
2022-08-20T06:59:05.567Z,19.63
2022-08-20T07:01:35.765Z,21.67
2022-08-20T07:04:07.560Z,18.65
2022-08-20T07:06:35.693Z,20.30
2022-08-20T07:09:03.710Z,18.85
2022-08-20T07:11:31.631Z,19.63
2022-08-20T07:13:59.602Z,19.55
2022-08-20T07:16:27.984Z,20.83
2022-08-20T07:18:58.250Z,18.65
2022-08-20T07:21:26.599Z,17.35
2022-08-20T07:23:54.529Z,19.63
2022-08-20T07:26:22.936Z,17.33
2022-08-20T07:28:50.964Z,20.23
2022-08-20T07:31:36.583Z,19.75
2022-08-20T07:34:06.231Z,19.52
2022-08-20T07:36:34.902Z,17.85
2022-08-20T07:39:05.896Z,18.00
2022-08-20T07:41:34.848Z,16.00
2022-08-20T07:44:03.384Z,17.08
2022-08-20T07:46:32.282Z,18.27
2022-08-20T07:49:00.363Z,20.17
2022-08-20T07:51:29.894Z,17.40
2022-08-20T07:54:00.109Z,16.33
2022-08-20T07:56:28.247Z,17.08
2022-08-20T07:58:59.191Z,17.70
2022-08-20T08:01:29.673Z,16.50
2022-08-20T08:03:57.937Z,20.70
2022-08-20T08:06:29.067Z,16.90
2022-08-20T08:09:02.478Z,16.15
2022-08-20T08:11:30.957Z,16.45
2022-08-20T08:14:00.752Z,16.92
2022-08-20T08:16:32.532Z,17.45
2022-08-20T08:19:01.828Z,16.10
2022-08-20T08:21:31.090Z,16.77
2022-08-20T08:24:00.663Z,15.48
2022-08-20T08:26:29.290Z,16.98
2022-08-20T08:28:58.002Z,17.33
2022-08-20T08:31:26.613Z,15.05
2022-08-20T08:33:55.177Z,16.75
2022-08-20T08:36:23.237Z,15.40
2022-08-20T08:38:51.201Z,17.67
2022-08-20T08:41:26.060Z,14.65
2022-08-20T08:43:55.619Z,16.70
2022-08-20T08:46:27.450Z,17.40
2022-08-20T08:49:01.560Z,16.85
2022-08-20T08:51:34.878Z,15.48
2022-08-20T08:54:06.938Z,15.00
2022-08-20T08:56:37.100Z,16.50
2022-08-20T08:59:08.687Z,17.25
2022-08-20T09:01:55.198Z,17.15
2022-08-20T09:04:31.577Z,20.23
2022-08-20T09:07:00.582Z,15.20
2022-08-20T09:09:32.527Z,16.20
2022-08-20T09:12:07.828Z,19.95
2022-08-20T09:14:36.644Z,16.17
2022-08-20T09:17:05.054Z,18.02
2022-08-20T09:19:32.951Z,18.92
2022-08-20T09:22:07.378Z,19.00
2022-08-20T09:24:35.600Z,18.27
2022-08-20T09:27:05.229Z,16.40
2022-08-20T09:29:33.778Z,16.23
2022-08-20T09:32:09.185Z,19.73
2022-08-20T09:34:38.648Z,17.58
2022-08-20T09:37:06.668Z,19.42
2022-08-20T09:39:35.215Z,18.10
2022-08-20T09:42:13.564Z,16.55
2022-08-20T09:44:42.062Z,16.13
2022-08-20T09:47:11.122Z,18.35
2022-08-20T09:49:40.471Z,19.65
2022-08-20T09:52:09.906Z,18.70
2022-08-20T09:54:46.310Z,22.20
2022-08-20T09:57:17.129Z,17.02
2022-08-20T09:59:48.056Z,16.83
2022-08-20T10:02:15.977Z,16.60
2022-08-20T10:04:43.875Z,16.23
2022-08-20T10:07:12.197Z,17.00
2022-08-20T10:09:44.933Z,16.35
2022-08-20T10:12:13.302Z,19.50
2022-08-20T10:14:42.530Z,17.00
2022-08-20T10:17:10.628Z,16.17
2022-08-20T10:19:38.541Z,16.83
2022-08-20T10:22:06.727Z,16.67
2022-08-20T10:24:35.643Z,17.65
2022-08-20T10:27:03.671Z,16.38
2022-08-20T10:29:32.342Z,17.02
2022-08-20T10:32:09.864Z,16.52
2022-08-20T10:34:37.808Z,15.55
2022-08-20T10:37:05.729Z,16.00
2022-08-20T10:39:33.683Z,15.30
2022-08-20T10:42:01.584Z,17.35
2022-08-20T10:44:29.920Z,16.42
2022-08-20T10:46:57.976Z,15.80
2022-08-20T10:49:27.977Z,19.13
2022-08-20T10:51:56.472Z,15.57
2022-08-20T10:54:25.264Z,16.33
2022-08-20T10:56:53.124Z,16.55
2022-08-20T10:59:20.998Z,17.48
2022-08-20T11:01:49.016Z,15.10
2022-08-20T11:04:16.912Z,15.95
2022-08-20T11:06:46.143Z,16.30
2022-08-20T11:09:14.213Z,16.15
2022-08-20T11:11:42.182Z,17.92
2022-08-20T11:14:10.189Z,16.88
2022-08-20T11:16:38.087Z,16.58
2022-08-20T11:19:06.599Z,16.15
2022-08-20T11:21:34.584Z,15.20
2022-08-20T11:24:04.637Z,16.48
2022-08-20T11:26:32.562Z,16.83
2022-08-20T11:29:00.467Z,16.05
2022-08-20T11:31:28.354Z,16.55
2022-08-20T11:33:56.793Z,17.52
2022-08-20T11:36:26.318Z,16.15
2022-08-20T11:38:54.384Z,16.63
2022-08-20T11:41:23.640Z,17.25
2022-08-20T11:44:17.409Z,18.23
2022-08-20T11:46:39.497Z,16.45
2022-08-20T11:49:07.666Z,18.40
2022-08-20T11:51:49.005Z,17.00
2022-08-20T11:54:18.188Z,17.02
2022-08-20T11:56:47.429Z,18.30
2022-08-20T11:59:15.382Z,17.65
2022-08-20T12:02:01.955Z,18.35
2022-08-20T12:04:33.367Z,17.70
2022-08-20T12:07:09.644Z,16.88
2022-08-20T12:09:37.642Z,16.75
2022-08-20T12:14:41.970Z,10.40
2022-08-20T12:17:10.583Z,11.85
2022-08-20T12:19:39.314Z,12.10
2022-08-20T12:22:24.378Z,12.63
2022-08-20T12:24:53.891Z,10.82
2022-08-20T12:27:24.493Z,11.32
2022-08-20T12:29:54.715Z,9.93
2022-08-20T12:32:24.683Z,11.20
2022-08-20T12:34:53.007Z,10.05
2022-08-20T12:37:23.536Z,10.25
2022-08-20T12:39:53.025Z,9.60
2022-08-20T12:42:23.575Z,10.27
2022-08-20T12:44:51.425Z,9.73
2022-08-20T12:47:21.532Z,10.00
2022-08-20T12:49:51.617Z,10.98
2022-08-20T12:52:21.635Z,9.57
2022-08-20T12:54:49.705Z,8.75
2022-08-20T12:57:26.188Z,9.35
2022-08-20T12:59:54.064Z,8.55
2022-08-20T13:02:21.967Z,8.40
2022-08-20T13:04:49.855Z,11.93
2022-08-20T13:07:17.920Z,11.70
2022-08-20T13:09:46.252Z,15.18
2022-08-20T13:12:15.195Z,9.15
2022-08-20T13:14:44.933Z,9.38
2022-08-20T13:17:13.095Z,10.23
2022-08-20T13:19:41.005Z,9.02
2022-08-20T13:22:08.979Z,9.43
2022-08-20T13:24:37.502Z,9.73
2022-08-20T13:27:07.449Z,9.90
2022-08-20T13:29:35.849Z,7.75
2022-08-20T13:32:06.170Z,8.65
2022-08-20T13:34:34.092Z,7.85
2022-08-20T13:37:01.961Z,8.02
2022-08-20T13:39:29.868Z,9.32
2022-08-20T13:41:57.760Z,8.90
2022-08-20T13:44:32.794Z,8.60
2022-08-20T13:47:01.838Z,8.75
2022-08-20T13:49:34.061Z,8.00
2022-08-20T13:52:02.114Z,8.90
2022-08-20T13:54:31.187Z,10.13
2022-08-20T13:57:05.922Z,8.10
2022-08-20T13:59:37.360Z,8.00
2022-08-20T14:02:07.400Z,7.10
2022-08-20T14:04:37.406Z,8.38
2022-08-20T14:07:14.934Z,7.28
2022-08-20T14:09:44.910Z,6.93
2022-08-20T14:12:14.044Z,7.30
2022-08-20T14:14:43.288Z,6.97
2022-08-20T14:17:16.398Z,7.15
2022-08-20T14:19:45.835Z,8.05
2022-08-20T14:22:13.847Z,5.25
2022-08-20T14:24:41.747Z,2.15
2022-08-20T14:27:09.861Z,2.15
2022-08-20T14:29:40.119Z,2.08
2022-08-20T14:32:08.664Z,2.90
2022-08-20T14:34:37.377Z,3.58
2022-08-20T14:37:15.429Z,4.35
2022-08-20T14:39:44.696Z,3.17
2022-08-20T14:42:13.318Z,3.78
2022-08-20T14:44:41.940Z,4.20
2022-08-20T14:47:19.113Z,2.30
2022-08-20T14:49:48.308Z,3.78
2022-08-20T14:52:20.039Z,3.97
2022-08-20T14:54:48.965Z,4.43
2022-08-20T14:57:19.459Z,3.75
2022-08-20T14:59:47.697Z,3.55
2022-08-20T15:02:17.440Z,5.00
2022-08-20T15:04:48.795Z,4.05
2022-08-20T15:07:27.325Z,2.83
2022-08-20T15:09:57.139Z,2.58
2022-08-20T15:12:25.640Z,3.10
2022-08-20T15:14:53.542Z,5.07
2022-08-20T15:17:24.399Z,5.22
2022-08-20T15:19:52.926Z,4.63
2022-08-20T15:22:21.508Z,6.05
2022-08-20T15:24:52.719Z,5.43
2022-08-20T15:27:26.434Z,5.00
2022-08-20T15:29:54.962Z,5.07
2022-08-20T15:32:23.005Z,5.35
2022-08-20T15:34:51.334Z,3.08
2022-08-20T15:37:21.795Z,3.97
2022-08-20T15:39:52.031Z,3.20
2022-08-20T15:42:21.454Z,4.65
2022-08-20T15:44:49.409Z,6.32
2022-08-20T15:47:24.378Z,3.08
2022-08-20T15:49:56.867Z,3.70
2022-08-20T15:52:27.649Z,3.83
2022-08-20T15:54:56.950Z,3.75
2022-08-20T15:57:45.120Z,2.08
2022-08-20T16:00:16.382Z,2.33
2022-08-20T16:03:01.116Z,2.35
2022-08-20T16:05:39.943Z,2.13
2022-08-20T16:08:20.731Z,2.67
2022-08-20T16:10:58.950Z,3.30
2022-08-20T16:13:35.615Z,2.47
2022-08-20T16:16:05.410Z,4.53
2022-08-20T16:18:36.780Z,3.35
2022-08-20T16:21:11.305Z,2.28
2022-08-20T16:23:41.892Z,2.17
2022-08-20T16:26:24.484Z,3.45
2022-08-20T16:29:03.666Z,3.75
2022-08-20T16:31:42.889Z,4.28
2022-08-20T16:34:34.011Z,4.13
2022-08-20T16:37:12.516Z,6.47
2022-08-20T16:39:53.067Z,3.80
2022-08-20T16:42:25.637Z,3.92
2022-08-20T16:44:57.354Z,3.87
2022-08-20T16:47:29.570Z,2.88
2022-08-20T16:50:01.603Z,5.15
2022-08-20T16:52:29.957Z,3.22
2022-08-20T16:54:58.202Z,2.72
2022-08-20T16:57:29.100Z,2.38
2022-08-20T16:59:59.675Z,3.17
2022-08-20T17:02:27.717Z,3.90
2022-08-20T17:04:59.326Z,4.40
2022-08-20T17:07:33.498Z,4.50
2022-08-20T17:12:42.993Z,3.13
2022-08-20T17:15:20.779Z,5.20
2022-08-20T17:17:48.860Z,3.40
2022-08-20T17:20:20.378Z,6.15
2022-08-20T17:22:51.661Z,4.53
2022-08-20T17:25:23.249Z,5.28
2022-08-20T17:27:52.549Z,4.68
2022-08-20T17:30:24.800Z,4.03
2022-08-20T17:32:59.516Z,3.67
2022-08-20T17:35:31.638Z,3.95
2022-08-20T17:38:01.028Z,3.42
2022-08-20T17:40:33.364Z,5.22
2022-08-20T17:43:04.986Z,6.30
2022-08-20T17:45:38.426Z,5.07
2022-08-20T17:50:39.435Z,4.85
2022-08-20T17:53:18.761Z,3.70
2022-08-20T17:55:53.144Z,5.28
2022-08-20T17:58:32.394Z,4.60
2022-08-20T18:01:00.865Z,6.22
2022-08-20T18:03:29.283Z,4.40
2022-08-20T18:06:02.655Z,3.97
2022-08-20T18:08:39.912Z,3.28
2022-08-20T18:11:18.151Z,4.38
2022-08-20T18:14:06.120Z,3.58
2022-08-20T18:16:44.891Z,4.28
2022-08-20T18:19:19.819Z,7.40
2022-08-20T18:22:07.925Z,4.18
2022-08-20T18:24:44.580Z,3.67
2022-08-20T18:27:15.726Z,4.65
2022-08-20T18:29:49.565Z,5.38
2022-08-20T18:32:31.576Z,3.70
2022-08-20T18:35:18.655Z,4.95
2022-08-20T18:37:46.641Z,7.55
2022-08-20T18:40:24.030Z,6.22
2022-08-20T18:42:52.042Z,5.97
2022-08-20T18:45:31.322Z,4.72
2022-08-20T18:47:59.968Z,5.50
2022-08-20T18:50:32.566Z,6.50
2022-08-20T18:53:11.720Z,6.55
2022-08-20T18:55:43.284Z,6.20
2022-08-20T18:58:13.855Z,4.13
2022-08-20T19:00:46.035Z,4.32
2022-08-20T19:03:19.376Z,7.00
2022-08-20T19:08:45.719Z,3.90
2022-08-20T19:11:34.915Z,7.85
2022-08-20T19:14:21.797Z,5.82
2022-08-20T19:16:56.873Z,5.07
2022-08-20T19:19:28.546Z,6.90
2022-08-20T19:22:02.554Z,5.00
2022-08-20T19:24:34.698Z,4.72
2022-08-20T19:27:06.206Z,5.38
2022-08-20T19:29:38.155Z,6.93
2022-08-20T19:32:10.462Z,7.55
2022-08-20T19:34:42.036Z,7.07
2022-08-20T19:37:31.592Z,5.90
2022-08-20T19:40:05.985Z,7.47
2022-08-20T19:42:43.154Z,4.68
2022-08-20T19:45:18.186Z,6.50
2022-08-20T19:47:56.668Z,4.28
2022-08-20T19:50:36.648Z,5.03
2022-08-20T19:53:15.028Z,4.05
2022-08-20T19:55:43.818Z,4.97
2022-08-20T19:58:16.869Z,6.43
2022-08-20T20:00:55.382Z,6.85
2022-08-20T20:03:27.510Z,5.70
2022-08-20T20:05:57.646Z,5.30
2022-08-20T20:08:30.314Z,6.50
2022-08-20T20:11:00.547Z,4.30
2022-08-20T20:13:35.985Z,4.10
2022-08-20T20:16:08.333Z,6.15
2022-08-20T20:18:41.217Z,4.22
2022-08-20T20:21:13.411Z,4.90
2022-08-20T20:23:46.735Z,8.45
2022-08-20T20:26:18.251Z,4.55
2022-08-20T20:28:49.001Z,4.75
2022-08-20T20:31:23.301Z,4.57
2022-08-20T20:33:55.893Z,6.72
2022-08-20T20:36:36.086Z,4.40
2022-08-20T20:39:12.457Z,5.25
2022-08-20T20:41:52.259Z,5.05
2022-08-20T20:44:22.473Z,6.70
2022-08-20T20:46:55.814Z,5.65
2022-08-20T20:49:27.780Z,5.00
2022-08-20T20:52:00.640Z,5.60
2022-08-20T20:54:40.503Z,3.75
2022-08-20T20:57:10.176Z,5.35
2022-08-20T20:59:38.292Z,4.18
2022-08-20T21:02:06.391Z,3.65
2022-08-20T21:04:38.499Z,5.43
2022-08-20T21:07:11.153Z,4.75
2022-08-20T21:09:41.538Z,4.90
2022-08-20T21:12:10.449Z,5.47
2022-08-20T21:14:38.551Z,4.72
2022-08-20T21:17:10.065Z,4.30
2022-08-20T21:19:41.112Z,4.40
2022-08-20T21:22:13.152Z,3.75
2022-08-20T21:24:41.106Z,3.38
2022-08-20T21:27:09.806Z,4.18
2022-08-20T21:29:40.447Z,3.42
2022-08-20T21:32:09.066Z,6.28
2022-08-20T21:34:41.797Z,4.63
2022-08-20T21:37:09.660Z,3.92
2022-08-20T21:39:37.846Z,4.80
2022-08-20T21:42:28.260Z,4.78
2022-08-20T21:44:56.849Z,5.78
2022-08-20T21:47:24.922Z,5.35
2022-08-20T21:49:54.477Z,3.13
2022-08-20T21:52:22.539Z,4.70
2022-08-20T21:54:50.425Z,5.10
2022-08-20T21:57:21.463Z,4.47
2022-08-20T21:59:50.198Z,3.53
2022-08-20T22:02:19.343Z,3.22
2022-08-20T22:04:47.209Z,6.50
2022-08-20T22:07:17.153Z,4.88
2022-08-20T22:09:45.125Z,3.63
2022-08-20T22:12:19.218Z,2.95
2022-08-20T22:14:47.494Z,4.38
2022-08-20T22:17:15.767Z,3.50
2022-08-20T22:19:43.804Z,3.88
2022-08-20T22:22:13.164Z,4.32
2022-08-20T22:24:42.877Z,4.40
2022-08-20T22:27:10.915Z,3.20
2022-08-20T22:29:39.202Z,3.45
2022-08-20T22:32:07.414Z,4.78
2022-08-20T22:34:37.939Z,6.10
2022-08-20T22:37:06.208Z,2.88
2022-08-20T22:39:34.298Z,6.03
2022-08-20T22:42:03.631Z,3.65
2022-08-20T22:44:31.530Z,4.28
2022-08-20T22:47:02.764Z,4.07
2022-08-20T22:49:34.329Z,2.45
2022-08-20T22:52:02.596Z,3.67
2022-08-20T22:54:30.894Z,5.00
2022-08-20T22:56:58.811Z,3.75
2022-08-20T22:59:28.941Z,4.43
2022-08-20T23:01:59.182Z,2.95
2022-08-20T23:04:29.452Z,4.53
2022-08-20T23:06:58.382Z,4.65
2022-08-20T23:09:27.326Z,3.15
2022-08-20T23:11:55.248Z,2.97
2022-08-20T23:14:23.398Z,3.15
2022-08-20T23:17:01.889Z,5.90
2022-08-20T23:19:29.896Z,3.55
2022-08-20T23:21:57.819Z,4.22
2022-08-20T23:24:25.988Z,4.63
2022-08-20T23:26:54.321Z,4.53
2022-08-20T23:29:25.427Z,4.35
2022-08-20T23:31:56.573Z,3.03
2022-08-20T23:34:24.944Z,3.15
2022-08-20T23:36:53.321Z,2.95
2022-08-20T23:39:21.665Z,3.47
2022-08-20T23:41:49.575Z,4.45
2022-08-20T23:44:26.372Z,4.03
2022-08-20T23:46:57.666Z,4.60
2022-08-20T23:49:26.082Z,4.88
2022-08-20T23:51:54.022Z,3.30
2022-08-20T23:54:22.135Z,3.00
2022-08-20T23:56:50.033Z,2.90
2022-08-20T23:59:18.304Z,6.78
